sensor_id;sensor_type;location;lat;lon;timestamp;P1;durP1;ratioP1;P2;durP2;ratioP2
38847;SDS011;24602;44.780;20.408;2022-08-21T00:00:30;41.30;;;28.55;;
38847;SDS011;24602;44.780;20.408;2022-08-21T00:03:12;47.53;;;29.15;;
38847;SDS011;24602;44.780;20.408;2022-08-21T00:05:46;39.72;;;28.42;;
38847;SDS011;24602;44.780;20.408;2022-08-21T00:08:19;43.80;;;26.25;;
38847;SDS011;24602;44.780;20.408;2022-08-21T00:10:55;39.40;;;28.85;;
38847;SDS011;24602;44.780;20.408;2022-08-21T00:13:25;41.47;;;25.70;;
38847;SDS011;24602;44.780;20.408;2022-08-21T00:15:55;29.83;;;23.23;;
38847;SDS011;24602;44.780;20.408;2022-08-21T00:18:26;32.08;;;24.02;;
38847;SDS011;24602;44.780;20.408;2022-08-21T00:20:58;35.13;;;23.60;;
38847;SDS011;24602;44.780;20.408;2022-08-21T00:23:28;28.90;;;20.77;;
38847;SDS011;24602;44.780;20.408;2022-08-21T00:25:58;25.65;;;17.15;;
38847;SDS011;24602;44.780;20.408;2022-08-21T00:28:28;23.20;;;15.38;;
38847;SDS011;24602;44.780;20.408;2022-08-21T00:30:59;18.70;;;12.23;;
38847;SDS011;24602;44.780;20.408;2022-08-21T00:33:33;18.17;;;8.52;;
38847;SDS011;24602;44.780;20.408;2022-08-21T00:36:03;15.32;;;7.95;;
38847;SDS011;24602;44.780;20.408;2022-08-21T00:38:36;14.85;;;8.15;;
38847;SDS011;24602;44.780;20.408;2022-08-21T00:41:08;16.10;;;8.40;;
38847;SDS011;24602;44.780;20.408;2022-08-21T00:43:57;14.48;;;8.05;;
38847;SDS011;24602;44.780;20.408;2022-08-21T00:46:26;14.75;;;6.95;;
38847;SDS011;24602;44.780;20.408;2022-08-21T00:48:56;16.25;;;7.35;;
38847;SDS011;24602;44.780;20.408;2022-08-21T00:51:42;12.60;;;5.78;;
38847;SDS011;24602;44.780;20.408;2022-08-21T00:54:30;8.82;;;5.50;;
38847;SDS011;24602;44.780;20.408;2022-08-21T00:57:13;12.82;;;5.47;;
38847;SDS011;24602;44.780;20.408;2022-08-21T00:59:51;9.95;;;4.18;;
38847;SDS011;24602;44.780;20.408;2022-08-21T01:02:33;10.38;;;4.82;;
38847;SDS011;24602;44.780;20.408;2022-08-21T01:05:04;7.75;;;4.03;;
38847;SDS011;24602;44.780;20.408;2022-08-21T01:07:35;5.13;;;3.55;;
38847;SDS011;24602;44.780;20.408;2022-08-21T01:10:07;5.25;;;2.92;;
38847;SDS011;24602;44.780;20.408;2022-08-21T01:12:46;3.78;;;1.17;;
38847;SDS011;24602;44.780;20.408;2022-08-21T01:15:14;3.10;;;1.48;;
38847;SDS011;24602;44.780;20.408;2022-08-21T01:17:46;4.10;;;1.92;;
38847;SDS011;24602;44.780;20.408;2022-08-21T01:20:19;4.15;;;2.38;;
38847;SDS011;24602;44.780;20.408;2022-08-21T01:22:47;6.38;;;2.38;;
38847;SDS011;24602;44.780;20.408;2022-08-21T01:25:22;6.60;;;2.35;;
38847;SDS011;24602;44.780;20.408;2022-08-21T01:27:50;8.70;;;2.75;;
38847;SDS011;24602;44.780;20.408;2022-08-21T01:30:22;2.75;;;2.15;;
38847;SDS011;24602;44.780;20.408;2022-08-21T01:32:58;3.70;;;2.30;;
38847;SDS011;24602;44.780;20.408;2022-08-21T01:35:28;3.28;;;2.00;;
38847;SDS011;24602;44.780;20.408;2022-08-21T01:37:59;5.78;;;1.98;;
38847;SDS011;24602;44.780;20.408;2022-08-21T01:40:29;3.92;;;1.92;;
38847;SDS011;24602;44.780;20.408;2022-08-21T01:42:59;3.78;;;1.80;;
38847;SDS011;24602;44.780;20.408;2022-08-21T01:45:28;4.72;;;1.92;;
38847;SDS011;24602;44.780;20.408;2022-08-21T01:48:00;4.18;;;1.88;;
38847;SDS011;24602;44.780;20.408;2022-08-21T01:50:34;4.40;;;1.88;;
38847;SDS011;24602;44.780;20.408;2022-08-21T01:53:05;4.07;;;2.10;;
38847;SDS011;24602;44.780;20.408;2022-08-21T01:55:34;5.10;;;2.00;;
38847;SDS011;24602;44.780;20.408;2022-08-21T01:58:05;2.13;;;1.73;;
38847;SDS011;24602;44.780;20.408;2022-08-21T02:00:36;5.18;;;2.13;;
38847;SDS011;24602;44.780;20.408;2022-08-21T02:03:09;4.10;;;1.88;;
38847;SDS011;24602;44.780;20.408;2022-08-21T02:05:36;2.40;;;1.88;;
38847;SDS011;24602;44.780;20.408;2022-08-21T02:08:09;5.03;;;2.22;;
38847;SDS011;24602;44.780;20.408;2022-08-21T02:10:37;2.95;;;1.90;;
38847;SDS011;24602;44.780;20.408;2022-08-21T02:13:15;3.42;;;1.98;;
38847;SDS011;24602;44.780;20.408;2022-08-21T02:15:43;4.15;;;1.92;;
38847;SDS011;24602;44.780;20.408;2022-08-21T02:18:19;4.93;;;2.17;;
38847;SDS011;24602;44.780;20.408;2022-08-21T02:20:49;3.63;;;2.10;;
38847;SDS011;24602;44.780;20.408;2022-08-21T02:23:26;2.92;;;1.77;;
38847;SDS011;24602;44.780;20.408;2022-08-21T02:26:15;5.28;;;2.45;;
38847;SDS011;24602;44.780;20.408;2022-08-21T02:28:44;2.88;;;1.75;;
38847;SDS011;24602;44.780;20.408;2022-08-21T02:31:13;5.75;;;2.40;;
38847;SDS011;24602;44.780;20.408;2022-08-21T02:33:40;4.93;;;2.30;;
38847;SDS011;24602;44.780;20.408;2022-08-21T02:36:09;5.13;;;2.35;;
38847;SDS011;24602;44.780;20.408;2022-08-21T02:38:41;4.15;;;2.40;;
38847;SDS011;24602;44.780;20.408;2022-08-21T02:41:13;4.10;;;3.00;;
38847;SDS011;24602;44.780;20.408;2022-08-21T02:43:43;5.28;;;2.38;;
38847;SDS011;24602;44.780;20.408;2022-08-21T02:46:17;5.25;;;2.42;;
38847;SDS011;24602;44.780;20.408;2022-08-21T02:48:49;3.85;;;2.30;;
38847;SDS011;24602;44.780;20.408;2022-08-21T02:51:19;3.22;;;1.95;;
38847;SDS011;24602;44.780;20.408;2022-08-21T02:53:55;3.50;;;2.03;;
38847;SDS011;24602;44.780;20.408;2022-08-21T02:56:25;8.25;;;3.05;;
38847;SDS011;24602;44.780;20.408;2022-08-21T02:58:57;3.63;;;2.30;;
38847;SDS011;24602;44.780;20.408;2022-08-21T03:01:29;3.28;;;1.73;;
38847;SDS011;24602;44.780;20.408;2022-08-21T03:04:00;3.55;;;2.22;;
38847;SDS011;24602;44.780;20.408;2022-08-21T03:06:29;4.30;;;2.13;;
38847;SDS011;24602;44.780;20.408;2022-08-21T03:09:02;3.20;;;2.30;;
38847;SDS011;24602;44.780;20.408;2022-08-21T03:11:33;4.80;;;2.05;;
38847;SDS011;24602;44.780;20.408;2022-08-21T03:14:04;5.47;;;2.20;;
38847;SDS011;24602;44.780;20.408;2022-08-21T03:16:35;5.18;;;2.33;;
38847;SDS011;24602;44.780;20.408;2022-08-21T03:19:04;3.35;;;2.42;;
38847;SDS011;24602;44.780;20.408;2022-08-21T03:21:35;4.43;;;2.58;;
38847;SDS011;24602;44.780;20.408;2022-08-21T03:24:06;5.13;;;2.08;;
38847;SDS011;24602;44.780;20.408;2022-08-21T03:26:34;7.05;;;2.90;;
38847;SDS011;24602;44.780;20.408;2022-08-21T03:29:06;4.53;;;2.60;;
38847;SDS011;24602;44.780;20.408;2022-08-21T03:31:38;5.15;;;2.78;;
38847;SDS011;24602;44.780;20.408;2022-08-21T03:34:12;3.20;;;2.60;;
38847;SDS011;24602;44.780;20.408;2022-08-21T03:36:42;4.20;;;2.95;;
38847;SDS011;24602;44.780;20.408;2022-08-21T03:39:11;5.20;;;3.10;;
38847;SDS011;24602;44.780;20.408;2022-08-21T03:41:42;6.60;;;3.60;;
38847;SDS011;24602;44.780;20.408;2022-08-21T03:44:13;4.18;;;3.72;;
38847;SDS011;24602;44.780;20.408;2022-08-21T03:46:50;6.32;;;5.32;;
38847;SDS011;24602;44.780;20.408;2022-08-21T03:49:22;6.22;;;4.60;;
38847;SDS011;24602;44.780;20.408;2022-08-21T03:51:52;7.53;;;5.53;;
38847;SDS011;24602;44.780;20.408;2022-08-21T03:54:25;9.63;;;6.15;;
38847;SDS011;24602;44.780;20.408;2022-08-21T03:56:55;8.52;;;6.75;;
38847;SDS011;24602;44.780;20.408;2022-08-21T03:59:23;13.50;;;9.05;;
38847;SDS011;24602;44.780;20.408;2022-08-21T04:01:54;12.95;;;8.50;;
38847;SDS011;24602;44.780;20.408;2022-08-21T04:04:23;11.40;;;7.88;;
38847;SDS011;24602;44.780;20.408;2022-08-21T04:06:58;15.13;;;8.73;;
38847;SDS011;24602;44.780;20.408;2022-08-21T04:09:31;11.32;;;8.80;;
38847;SDS011;24602;44.780;20.408;2022-08-21T04:12:00;10.85;;;8.05;;
38847;SDS011;24602;44.780;20.408;2022-08-21T04:14:29;11.77;;;8.10;;
38847;SDS011;24602;44.780;20.408;2022-08-21T04:16:58;10.88;;;7.95;;
38847;SDS011;24602;44.780;20.408;2022-08-21T04:19:28;9.18;;;7.90;;
38847;SDS011;24602;44.780;20.408;2022-08-21T04:21:59;11.07;;;8.05;;
38847;SDS011;24602;44.780;20.408;2022-08-21T04:24:28;11.18;;;8.80;;
38847;SDS011;24602;44.780;20.408;2022-08-21T04:26:58;9.45;;;8.25;;
38847;SDS011;24602;44.780;20.408;2022-08-21T04:29:27;11.07;;;8.50;;
38847;SDS011;24602;44.780;20.408;2022-08-21T04:32:05;13.60;;;9.05;;
38847;SDS011;24602;44.780;20.408;2022-08-21T04:34:37;13.45;;;8.90;;
38847;SDS011;24602;44.780;20.408;2022-08-21T04:37:04;14.50;;;10.18;;
38847;SDS011;24602;44.780;20.408;2022-08-21T04:39:36;14.00;;;9.25;;
38847;SDS011;24602;44.780;20.408;2022-08-21T04:42:10;15.30;;;9.75;;
38847;SDS011;24602;44.780;20.408;2022-08-21T04:44:39;15.82;;;8.65;;
38847;SDS011;24602;44.780;20.408;2022-08-21T04:47:09;14.02;;;9.88;;
38847;SDS011;24602;44.780;20.408;2022-08-21T04:49:41;13.77;;;9.13;;
38847;SDS011;24602;44.780;20.408;2022-08-21T04:52:52;13.73;;;9.13;;
38847;SDS011;24602;44.780;20.408;2022-08-21T04:55:24;11.93;;;7.90;;
38847;SDS011;24602;44.780;20.408;2022-08-21T04:57:57;12.73;;;9.60;;
38847;SDS011;24602;44.780;20.408;2022-08-21T05:00:31;18.20;;;11.25;;
38847;SDS011;24602;44.780;20.408;2022-08-21T05:03:02;17.75;;;11.20;;
38847;SDS011;24602;44.780;20.408;2022-08-21T05:05:37;15.15;;;11.00;;
38847;SDS011;24602;44.780;20.408;2022-08-21T05:08:05;14.75;;;10.90;;
38847;SDS011;24602;44.780;20.408;2022-08-21T05:10:42;14.73;;;9.27;;
38847;SDS011;24602;44.780;20.408;2022-08-21T05:13:12;17.55;;;11.25;;
38847;SDS011;24602;44.780;20.408;2022-08-21T05:15:46;18.15;;;11.27;;
38847;SDS011;24602;44.780;20.408;2022-08-21T05:18:19;20.35;;;12.35;;
38847;SDS011;24602;44.780;20.408;2022-08-21T05:20:52;16.38;;;11.10;;
38847;SDS011;24602;44.780;20.408;2022-08-21T05:23:22;12.77;;;9.50;;
38847;SDS011;24602;44.780;20.408;2022-08-21T05:25:55;13.60;;;10.38;;
38847;SDS011;24602;44.780;20.408;2022-08-21T05:28:26;12.88;;;8.77;;
38847;SDS011;24602;44.780;20.408;2022-08-21T05:30:54;19.83;;;10.38;;
38847;SDS011;24602;44.780;20.408;2022-08-21T05:33:24;14.63;;;11.13;;
38847;SDS011;24602;44.780;20.408;2022-08-21T05:35:56;16.67;;;10.95;;
38847;SDS011;24602;44.780;20.408;2022-08-21T05:38:28;16.95;;;10.40;;
38847;SDS011;24602;44.780;20.408;2022-08-21T05:40:59;14.95;;;10.32;;
38847;SDS011;24602;44.780;20.408;2022-08-21T05:43:27;19.73;;;11.15;;
38847;SDS011;24602;44.780;20.408;2022-08-21T05:45:56;13.50;;;10.95;;
38847;SDS011;24602;44.780;20.408;2022-08-21T05:48:28;18.85;;;10.95;;
38847;SDS011;24602;44.780;20.408;2022-08-21T05:51:07;14.63;;;10.00;;
38847;SDS011;24602;44.780;20.408;2022-08-21T05:53:41;16.20;;;11.70;;
38847;SDS011;24602;44.780;20.408;2022-08-21T05:56:12;12.75;;;9.13;;
38847;SDS011;24602;44.780;20.408;2022-08-21T05:58:43;14.35;;;8.48;;
38847;SDS011;24602;44.780;20.408;2022-08-21T06:01:11;14.23;;;10.15;;
38847;SDS011;24602;44.780;20.408;2022-08-21T06:03:41;17.55;;;10.60;;
38847;SDS011;24602;44.780;20.408;2022-08-21T06:06:13;17.85;;;10.82;;
38847;SDS011;24602;44.780;20.408;2022-08-21T06:08:40;16.35;;;10.27;;
38847;SDS011;24602;44.780;20.408;2022-08-21T06:11:08;16.83;;;9.45;;
38847;SDS011;24602;44.780;20.408;2022-08-21T06:13:39;12.93;;;8.18;;
38847;SDS011;24602;44.780;20.408;2022-08-21T06:16:14;12.25;;;9.18;;
38847;SDS011;24602;44.780;20.408;2022-08-21T06:18:45;11.93;;;8.73;;
38847;SDS011;24602;44.780;20.408;2022-08-21T06:21:17;10.98;;;7.78;;
38847;SDS011;24602;44.780;20.408;2022-08-21T06:23:47;12.32;;;7.13;;
38847;SDS011;24602;44.780;20.408;2022-08-21T06:26:17;12.07;;;8.52;;
38847;SDS011;24602;44.780;20.408;2022-08-21T06:28:46;13.60;;;8.38;;
38847;SDS011;24602;44.780;20.408;2022-08-21T06:31:17;14.80;;;10.90;;
38847;SDS011;24602;44.780;20.408;2022-08-21T06:33:47;15.18;;;8.68;;
38847;SDS011;24602;44.780;20.408;2022-08-21T06:36:22;13.77;;;9.82;;
38847;SDS011;24602;44.780;20.408;2022-08-21T06:38:57;11.75;;;8.95;;
38847;SDS011;24602;44.780;20.408;2022-08-21T06:41:26;9.82;;;8.30;;
38847;SDS011;24602;44.780;20.408;2022-08-21T06:43:56;14.25;;;9.90;;
38847;SDS011;24602;44.780;20.408;2022-08-21T06:46:29;13.45;;;10.75;;
38847;SDS011;24602;44.780;20.408;2022-08-21T06:48:57;11.85;;;10.10;;
38847;SDS011;24602;44.780;20.408;2022-08-21T06:51:28;12.63;;;9.50;;
38847;SDS011;24602;44.780;20.408;2022-08-21T06:53:57;15.30;;;9.20;;
38847;SDS011;24602;44.780;20.408;2022-08-21T06:56:27;13.18;;;10.05;;
38847;SDS011;24602;44.780;20.408;2022-08-21T06:58:57;16.95;;;9.05;;
38847;SDS011;24602;44.780;20.408;2022-08-21T07:01:26;13.90;;;10.10;;
38847;SDS011;24602;44.780;20.408;2022-08-21T07:03:57;12.80;;;9.32;;
38847;SDS011;24602;44.780;20.408;2022-08-21T07:06:28;13.80;;;8.95;;
38847;SDS011;24602;44.780;20.408;2022-08-21T07:09:02;11.90;;;8.38;;
38847;SDS011;24602;44.780;20.408;2022-08-21T07:11:33;11.52;;;8.73;;
38847;SDS011;24602;44.780;20.408;2022-08-21T07:14:16;9.20;;;8.23;;
38847;SDS011;24602;44.780;20.408;2022-08-21T07:16:49;11.33;;;8.57;;
38847;SDS011;24602;44.780;20.408;2022-08-21T07:19:21;9.82;;;7.85;;
38847;SDS011;24602;44.780;20.408;2022-08-21T07:21:53;15.20;;;8.40;;
38847;SDS011;24602;44.780;20.408;2022-08-21T07:24:28;7.20;;;6.20;;
38847;SDS011;24602;44.780;20.408;2022-08-21T07:27:00;7.93;;;6.30;;
38847;SDS011;24602;44.780;20.408;2022-08-21T07:29:36;11.00;;;6.90;;
38847;SDS011;24602;44.780;20.408;2022-08-21T07:32:05;10.40;;;6.10;;
38847;SDS011;24602;44.780;20.408;2022-08-21T07:34:33;10.27;;;5.65;;
38847;SDS011;24602;44.780;20.408;2022-08-21T07:37:06;7.85;;;5.35;;
38847;SDS011;24602;44.780;20.408;2022-08-21T07:39:36;6.72;;;5.32;;
38847;SDS011;24602;44.780;20.408;2022-08-21T07:42:10;7.57;;;5.97;;
38847;SDS011;24602;44.780;20.408;2022-08-21T07:44:40;8.77;;;6.35;;
38847;SDS011;24602;44.780;20.408;2022-08-21T07:47:16;7.22;;;5.68;;
38847;SDS011;24602;44.780;20.408;2022-08-21T07:50:09;6.57;;;5.85;;
38847;SDS011;24602;44.780;20.408;2022-08-21T07:52:54;9.48;;;5.88;;
38847;SDS011;24602;44.780;20.408;2022-08-21T07:55:26;9.60;;;6.45;;
38847;SDS011;24602;44.780;20.408;2022-08-21T07:57:56;9.40;;;6.95;;
38847;SDS011;24602;44.780;20.408;2022-08-21T08:00:25;6.78;;;5.35;;
38847;SDS011;24602;44.780;20.408;2022-08-21T08:02:56;7.70;;;6.57;;
38847;SDS011;24602;44.780;20.408;2022-08-21T08:05:27;8.55;;;6.55;;
38847;SDS011;24602;44.780;20.408;2022-08-21T08:07:58;9.93;;;6.35;;
38847;SDS011;24602;44.780;20.408;2022-08-21T08:10:28;5.63;;;5.13;;
38847;SDS011;24602;44.780;20.408;2022-08-21T08:13:01;9.23;;;7.35;;
38847;SDS011;24602;44.780;20.408;2022-08-21T08:15:30;8.10;;;6.75;;
38847;SDS011;24602;44.780;20.408;2022-08-21T08:18:03;10.20;;;7.22;;
38847;SDS011;24602;44.780;20.408;2022-08-21T08:20:34;7.47;;;6.60;;
38847;SDS011;24602;44.780;20.408;2022-08-21T08:23:05;8.13;;;7.10;;
38847;SDS011;24602;44.780;20.408;2022-08-21T08:25:36;10.02;;;7.30;;
38847;SDS011;24602;44.780;20.408;2022-08-21T08:28:04;12.77;;;8.43;;
38847;SDS011;24602;44.780;20.408;2022-08-21T08:30:45;10.05;;;8.18;;
38847;SDS011;24602;44.780;20.408;2022-08-21T08:33:16;9.52;;;7.60;;
38847;SDS011;24602;44.780;20.408;2022-08-21T08:35:49;11.60;;;8.37;;
38847;SDS011;24602;44.780;20.408;2022-08-21T08:38:21;14.35;;;11.13;;
38847;SDS011;24602;44.780;20.408;2022-08-21T08:43:53;12.90;;;9.48;;
38847;SDS011;24602;44.780;20.408;2022-08-21T08:46:44;13.00;;;9.75;;
38847;SDS011;24602;44.780;20.408;2022-08-21T08:49:24;12.98;;;8.70;;
38847;SDS011;24602;44.780;20.408;2022-08-21T08:52:00;15.18;;;10.55;;
38847;SDS011;24602;44.780;20.408;2022-08-21T08:54:30;12.65;;;10.07;;
38847;SDS011;24602;44.780;20.408;2022-08-21T08:57:02;15.88;;;11.30;;
38847;SDS011;24602;44.780;20.408;2022-08-21T08:59:47;12.35;;;9.15;;
38847;SDS011;24602;44.780;20.408;2022-08-21T09:02:33;12.27;;;9.00;;
38847;SDS011;24602;44.780;20.408;2022-08-21T09:05:06;13.57;;;8.98;;
38847;SDS011;24602;44.780;20.408;2022-08-21T09:07:53;14.55;;;10.32;;
38847;SDS011;24602;44.780;20.408;2022-08-21T09:11:04;16.05;;;10.68;;
38847;SDS011;24602;44.780;20.408;2022-08-21T09:13:58;16.20;;;10.65;;
38847;SDS011;24602;44.780;20.408;2022-08-21T09:19:59;13.65;;;8.75;;
38847;SDS011;24602;44.780;20.408;2022-08-21T09:26:08;10.55;;;7.90;;
38847;SDS011;24602;44.780;20.408;2022-08-21T09:28:51;12.57;;;7.85;;
38847;SDS011;24602;44.780;20.408;2022-08-21T09:31:27;9.68;;;8.02;;
38847;SDS011;24602;44.780;20.408;2022-08-21T09:34:23;13.38;;;8.48;;
38847;SDS011;24602;44.780;20.408;2022-08-21T09:36:59;12.05;;;8.18;;
38847;SDS011;24602;44.780;20.408;2022-08-21T09:39:37;11.27;;;9.18;;
38847;SDS011;24602;44.780;20.408;2022-08-21T09:42:21;11.52;;;8.52;;
38847;SDS011;24602;44.780;20.408;2022-08-21T09:45:13;9.90;;;7.82;;
38847;SDS011;24602;44.780;20.408;2022-08-21T09:47:44;14.27;;;8.40;;
38847;SDS011;24602;44.780;20.408;2022-08-21T09:50:17;10.98;;;9.20;;
38847;SDS011;24602;44.780;20.408;2022-08-21T09:52:55;10.38;;;9.18;;
38847;SDS011;24602;44.780;20.408;2022-08-21T09:55:38;13.65;;;10.55;;
38847;SDS011;24602;44.780;20.408;2022-08-21T09:58:36;11.45;;;8.95;;
38847;SDS011;24602;44.780;20.408;2022-08-21T10:01:24;11.25;;;9.23;;
38847;SDS011;24602;44.780;20.408;2022-08-21T10:04:04;9.98;;;8.98;;
38847;SDS011;24602;44.780;20.408;2022-08-21T10:06:42;10.00;;;9.00;;
38847;SDS011;24602;44.780;20.408;2022-08-21T10:09:13;9.90;;;8.30;;
38847;SDS011;24602;44.780;20.408;2022-08-21T10:20:34;10.15;;;6.97;;
38847;SDS011;24602;44.780;20.408;2022-08-21T10:35:22;11.88;;;6.75;;
38847;SDS011;24602;44.780;20.408;2022-08-21T10:47:16;6.47;;;5.47;;
38847;SDS011;24602;44.780;20.408;2022-08-21T11:05:11;7.70;;;3.60;;
38847;SDS011;24602;44.780;20.408;2022-08-21T11:08:18;6.18;;;4.20;;
38847;SDS011;24602;44.780;20.408;2022-08-21T11:10:57;4.47;;;3.70;;
38847;SDS011;24602;44.780;20.408;2022-08-21T11:14:07;5.25;;;3.30;;
38847;SDS011;24602;44.780;20.408;2022-08-21T11:17:02;5.00;;;3.63;;
38847;SDS011;24602;44.780;20.408;2022-08-21T11:19:50;5.25;;;4.07;;
38847;SDS011;24602;44.780;20.408;2022-08-21T11:22:56;8.68;;;4.75;;
38847;SDS011;24602;44.780;20.408;2022-08-21T11:25:40;5.35;;;4.68;;
38847;SDS011;24602;44.780;20.408;2022-08-21T11:34:06;6.90;;;5.38;;
38847;SDS011;24602;44.780;20.408;2022-08-21T11:37:17;15.43;;;5.45;;
38847;SDS011;24602;44.780;20.408;2022-08-21T11:40:34;9.50;;;5.95;;
38847;SDS011;24602;44.780;20.408;2022-08-21T11:45:59;9.68;;;6.07;;
38847;SDS011;24602;44.780;20.408;2022-08-21T11:55:15;6.70;;;5.38;;
38847;SDS011;24602;44.780;20.408;2022-08-21T12:00:52;8.93;;;6.88;;
38847;SDS011;24602;44.780;20.408;2022-08-21T12:04:06;9.05;;;6.53;;
38847;SDS011;24602;44.780;20.408;2022-08-21T12:07:08;9.55;;;7.07;;
38847;SDS011;24602;44.780;20.408;2022-08-21T12:09:57;9.73;;;7.53;;
38847;SDS011;24602;44.780;20.408;2022-08-21T12:12:31;10.57;;;8.05;;
38847;SDS011;24602;44.780;20.408;2022-08-21T12:17:56;7.97;;;7.18;;
38847;SDS011;24602;44.780;20.408;2022-08-21T12:27:01;7.53;;;6.68;;
38847;SDS011;24602;44.780;20.408;2022-08-21T12:35:05;5.05;;;4.63;;
38847;SDS011;24602;44.780;20.408;2022-08-21T12:38:01;6.35;;;5.35;;
38847;SDS011;24602;44.780;20.408;2022-08-21T12:40:55;4.97;;;4.30;;
38847;SDS011;24602;44.780;20.408;2022-08-21T12:43:37;4.93;;;4.43;;
38847;SDS011;24602;44.780;20.408;2022-08-21T12:46:26;7.93;;;3.83;;
38847;SDS011;24602;44.780;20.408;2022-08-21T12:49:09;4.50;;;3.60;;
38847;SDS011;24602;44.780;20.408;2022-08-21T12:52:00;4.65;;;3.50;;
38847;SDS011;24602;44.780;20.408;2022-08-21T12:54:43;3.42;;;3.13;;
38847;SDS011;24602;44.780;20.408;2022-08-21T12:57:24;3.35;;;3.05;;
38847;SDS011;24602;44.780;20.408;2022-08-21T12:59:57;3.33;;;3.03;;
38847;SDS011;24602;44.780;20.408;2022-08-21T13:02:37;4.28;;;3.10;;
38847;SDS011;24602;44.780;20.408;2022-08-21T13:05:13;3.20;;;2.90;;
38847;SDS011;24602;44.780;20.408;2022-08-21T13:07:56;3.15;;;2.88;;
38847;SDS011;24602;44.780;20.408;2022-08-21T13:10:36;3.75;;;2.65;;
38847;SDS011;24602;44.780;20.408;2022-08-21T13:13:19;4.75;;;2.55;;
38847;SDS011;24602;44.780;20.408;2022-08-21T13:16:01;2.83;;;2.40;;
38847;SDS011;24602;44.780;20.408;2022-08-21T13:18:35;2.97;;;2.47;;
38847;SDS011;24602;44.780;20.408;2022-08-21T13:21:26;2.60;;;2.20;;
38847;SDS011;24602;44.780;20.408;2022-08-21T13:24:24;2.80;;;2.55;;
38847;SDS011;24602;44.780;20.408;2022-08-21T13:27:21;3.22;;;2.90;;
38847;SDS011;24602;44.780;20.408;2022-08-21T13:32:58;3.72;;;2.42;;
38847;SDS011;24602;44.780;20.408;2022-08-21T13:38:32;3.72;;;2.70;;
38847;SDS011;24602;44.780;20.408;2022-08-21T13:44:02;4.43;;;1.90;;
38847;SDS011;24602;44.780;20.408;2022-08-21T13:46:48;5.05;;;2.28;;
38847;SDS011;24602;44.780;20.408;2022-08-21T13:49:26;2.45;;;2.08;;
38847;SDS011;24602;44.780;20.408;2022-08-21T13:52:03;2.58;;;2.13;;
38847;SDS011;24602;44.780;20.408;2022-08-21T13:54:35;2.13;;;1.92;;
38847;SDS011;24602;44.780;20.408;2022-08-21T13:57:15;1.90;;;1.70;;
38847;SDS011;24602;44.780;20.408;2022-08-21T13:59:49;2.10;;;1.90;;
38847;SDS011;24602;44.780;20.408;2022-08-21T14:02:20;2.40;;;2.05;;
38847;SDS011;24602;44.780;20.408;2022-08-21T14:04:55;2.35;;;2.15;;
38847;SDS011;24602;44.780;20.408;2022-08-21T14:07:31;2.83;;;2.03;;
38847;SDS011;24602;44.780;20.408;2022-08-21T14:10:20;3.13;;;2.20;;
38847;SDS011;24602;44.780;20.408;2022-08-21T14:13:01;2.78;;;2.17;;
38847;SDS011;24602;44.780;20.408;2022-08-21T14:15:34;3.15;;;2.40;;
38847;SDS011;24602;44.780;20.408;2022-08-21T14:18:13;3.80;;;2.75;;
38847;SDS011;24602;44.780;20.408;2022-08-21T14:20:49;3.30;;;3.00;;
38847;SDS011;24602;44.780;20.408;2022-08-21T14:23:26;4.50;;;3.30;;
38847;SDS011;24602;44.780;20.408;2022-08-21T14:26:00;4.28;;;3.47;;
38847;SDS011;24602;44.780;20.408;2022-08-21T14:28:34;4.68;;;3.28;;
38847;SDS011;24602;44.780;20.408;2022-08-21T14:31:14;3.95;;;3.60;;
38847;SDS011;24602;44.780;20.408;2022-08-21T14:33:47;5.10;;;3.40;;
38847;SDS011;24602;44.780;20.408;2022-08-21T14:36:18;4.47;;;3.40;;
38847;SDS011;24602;44.780;20.408;2022-08-21T14:38:49;6.88;;;3.38;;
38847;SDS011;24602;44.780;20.408;2022-08-21T14:41:25;4.30;;;3.30;;
38847;SDS011;24602;44.780;20.408;2022-08-21T14:43:56;4.65;;;3.78;;
38847;SDS011;24602;44.780;20.408;2022-08-21T14:46:36;3.47;;;3.17;;
38847;SDS011;24602;44.780;20.408;2022-08-21T14:49:24;4.85;;;3.88;;
38847;SDS011;24602;44.780;20.408;2022-08-21T14:51:57;5.07;;;3.85;;
38847;SDS011;24602;44.780;20.408;2022-08-21T14:54:26;4.75;;;3.47;;
38847;SDS011;24602;44.780;20.408;2022-08-21T14:57:04;6.57;;;3.80;;
38847;SDS011;24602;44.780;20.408;2022-08-21T14:59:41;4.72;;;4.32;;
38847;SDS011;24602;44.780;20.408;2022-08-21T15:02:11;4.95;;;3.85;;
38847;SDS011;24602;44.780;20.408;2022-08-21T15:04:40;4.93;;;4.32;;
38847;SDS011;24602;44.780;20.408;2022-08-21T15:07:09;5.82;;;4.43;;
38847;SDS011;24602;44.780;20.408;2022-08-21T15:09:41;4.97;;;4.47;;
38847;SDS011;24602;44.780;20.408;2022-08-21T15:12:11;4.85;;;4.28;;
38847;SDS011;24602;44.780;20.408;2022-08-21T15:14:40;9.05;;;4.95;;
38847;SDS011;24602;44.780;20.408;2022-08-21T15:17:11;5.63;;;5.13;;
38847;SDS011;24602;44.780;20.408;2022-08-21T15:19:41;6.78;;;5.85;;
38847;SDS011;24602;44.780;20.408;2022-08-21T15:22:10;7.10;;;5.60;;
38847;SDS011;24602;44.780;20.408;2022-08-21T15:24:45;8.80;;;6.70;;
38847;SDS011;24602;44.780;20.408;2022-08-21T15:27:16;6.72;;;6.03;;
38847;SDS011;24602;44.780;20.408;2022-08-21T15:29:51;8.25;;;6.53;;
38847;SDS011;24602;44.780;20.408;2022-08-21T15:32:26;7.40;;;6.25;;
38847;SDS011;24602;44.780;20.408;2022-08-21T15:35:01;10.10;;;7.00;;
38847;SDS011;24602;44.780;20.408;2022-08-21T15:37:32;6.63;;;6.03;;
38847;SDS011;24602;44.780;20.408;2022-08-21T15:40:04;8.95;;;7.15;;
38847;SDS011;24602;44.780;20.408;2022-08-21T15:42:37;9.25;;;6.65;;
38847;SDS011;24602;44.780;20.408;2022-08-21T15:45:10;8.32;;;7.10;;
38847;SDS011;24602;44.780;20.408;2022-08-21T15:47:42;7.32;;;6.50;;
38847;SDS011;24602;44.780;20.408;2022-08-21T15:50:15;9.15;;;7.10;;
38847;SDS011;24602;44.780;20.408;2022-08-21T15:52:47;7.55;;;6.72;;
38847;SDS011;24602;44.780;20.408;2022-08-21T15:55:15;7.05;;;6.35;;
38847;SDS011;24602;44.780;20.408;2022-08-21T15:57:49;9.45;;;7.50;;
38847;SDS011;24602;44.780;20.408;2022-08-21T16:00:24;7.35;;;6.70;;
38847;SDS011;24602;44.780;20.408;2022-08-21T16:02:57;9.30;;;7.18;;
38847;SDS011;24602;44.780;20.408;2022-08-21T16:05:33;6.38;;;5.78;;
38847;SDS011;24602;44.780;20.408;2022-08-21T16:08:04;10.93;;;6.85;;
38847;SDS011;24602;44.780;20.408;2022-08-21T16:10:33;9.20;;;6.85;;
38847;SDS011;24602;44.780;20.408;2022-08-21T16:13:13;7.72;;;6.57;;
38847;SDS011;24602;44.780;20.408;2022-08-21T16:15:45;8.65;;;7.75;;
38847;SDS011;24602;44.780;20.408;2022-08-21T16:18:18;10.23;;;8.43;;
38847;SDS011;24602;44.780;20.408;2022-08-21T16:20:48;10.15;;;7.95;;
38847;SDS011;24602;44.780;20.408;2022-08-21T16:23:20;10.15;;;7.97;;
38847;SDS011;24602;44.780;20.408;2022-08-21T16:25:49;10.32;;;8.30;;
38847;SDS011;24602;44.780;20.408;2022-08-21T16:28:20;9.60;;;8.63;;
38847;SDS011;24602;44.780;20.408;2022-08-21T16:30:53;11.38;;;9.32;;
38847;SDS011;24602;44.780;20.408;2022-08-21T16:33:48;13.02;;;9.15;;
38847;SDS011;24602;44.780;20.408;2022-08-21T16:36:25;10.00;;;8.85;;
38847;SDS011;24602;44.780;20.408;2022-08-21T16:38:58;13.55;;;9.10;;
38847;SDS011;24602;44.780;20.408;2022-08-21T16:41:32;11.25;;;9.20;;
38847;SDS011;24602;44.780;20.408;2022-08-21T16:44:06;10.38;;;8.80;;
38847;SDS011;24602;44.780;20.408;2022-08-21T16:46:38;13.07;;;9.60;;
38847;SDS011;24602;44.780;20.408;2022-08-21T16:49:09;11.63;;;9.38;;